Peoga, Indiana
Current Conditions -  °F | °C
As of 11:15 PM on Tuesday 25 Nov 2014 (Local Time) from K1II Reporting Station
Overcast Overcast  
Wind Chill: -2°   Ceiling: 1700
Heat Index: -2°   Visibility: 10mi
Dew Point: -4°   Wind: 0mph
Humidity: 86%   Direction: NA
Pressure: 30.2"   Gusts: NA
Location:  39.3709°N, 86.1938°W
Report Text: K1II 260415Z AUTO 00000KT 10SM OVC017 M02/M04 A3020 RMK AO2
Loading
Personal Weather Stations






























Interactive Weather Map New forecast layout! Learn more

10-Day Weather Forecast

Advertisements
Track Severe Weather on mobile